Wednesday, June 20, 2018, 5:20 PM EDT
Back to Local

KBOS, Boston Logan International

Location: Boston, MA, United States Lat: 42.367
Local Time: 5:20 PM EDT (21:20 GMT) Lon: -71.017
Time Zone: US/Eastern Elev: 19 ft

Show me the last for .
Show Decoded

2018-06-20 16:54 METAR KBOS 202054Z 27012KT 10SM FEW030 BKN140 OVC250 27/09 A2977 RMK AO2 SLP081
                 T02720094 58009 =
2018-06-20 15:54 METAR KBOS 201954Z 26013G20KT 10SM FEW032 BKN140 OVC250 27/10 A2979 RMK AO2
                 SLP086 T02720100 =
2018-06-20 14:54 METAR KBOS 201854Z 24011KT 220V290 10SM FEW031 BKN140 OVC250 28/09 A2978 RMK AO2
                 SLP086 T02830094 VISNO E =
2018-06-20 13:54 METAR KBOS 201754Z 27011G22KT 10SM FEW050 FEW200 BKN250 28/09 A2980 RMK AO2
                 SLP090 T02830094 10289 20206 57024 $ =
2018-06-20 12:54 METAR KBOS 201654Z 13007KT 10SM FEW050 FEW200 SCT250 26/12 A2982 RMK AO2 SLP098
                 T02560117 =
2018-06-20 11:54 METAR KBOS 201554Z 13006KT 10SM FEW050 FEW200 BKN250 23/11 A2985 RMK AO2 SLP107
                 T02330106 $ =
2018-06-20 10:54 METAR KBOS 201454Z 13004KT 10SM SCT200 BKN250 23/11 A2987 RMK AO2 SLP115
                 T02280106 58017 $ =
2018-06-20 09:54 METAR KBOS 201354Z 13005KT 10SM FEW180 SCT250 22/11 A2989 RMK AO2 SLP121
                 T02170106 =
2018-06-20 08:54 METAR KBOS 201254Z VRB04KT 10SM FEW180 FEW250 21/12 A2991 RMK AO2 SLP128
                 T02060117 =
2018-06-20 07:54 METAR KBOS 201154Z 31004KT 10SM FEW200 21/11 A2992 RMK AO2 SLP132 T02110106
                 10211 20172 53014 =
2018-06-20 06:54 METAR KBOS 201054Z 32003KT 10SM FEW140 FEW250 19/11 A2990 RMK AO2 SLP126
                 T01940106 =
2018-06-20 05:54 METAR KBOS 200954Z 27005KT 10SM FEW150 FEW250 18/11 A2990 RMK AO2 SLP123
                 T01780106 =
2018-06-20 04:54 METAR KBOS 200854Z 32006KT 10SM FEW150 FEW250 17/10 A2988 RMK AO2 SLP118
                 T01720100 53002 =
2018-06-20 03:54 METAR KBOS 200754Z 29005KT 10SM CLR 18/10 A2988 RMK AO2 SLP117 T01780100 =
2018-06-20 02:54 METAR KBOS 200654Z 33005KT 10SM FEW250 19/09 A2987 RMK AO2 SLP115 T01890094 =
2018-06-20 01:54 METAR KBOS 200554Z 32006KT 10SM FEW250 19/09 A2988 RMK AO2 SLP116 T01940089
                 10256 20194 50002 =
2018-06-20 00:54 METAR KBOS 200454Z 33006KT 10SM SCT250 21/09 A2988 RMK AO2 SLP117 T02060089
                 402890206 =
2018-06-19 23:54 METAR KBOS 200354Z 35009KT 10SM BKN250 21/08 A2988 RMK AO2 SLP117 T02110083 =
2018-06-19 22:54 METAR KBOS 200254Z 35009KT 10SM FEW200 22/08 A2987 RMK AO2 SLP114 T02220083
                 53022 =
2018-06-19 21:54 METAR KBOS 200154Z 34007KT 10SM FEW120 FEW200 24/08 A2985 RMK AO2 SLP108
                 T02390083 =
2018-06-19 20:54 METAR KBOS 200054Z 34008KT 10SM SCT120 SCT200 24/07 A2982 RMK AO2 SLP098
                 T02440072 =
2018-06-19 19:54 METAR KBOS 192354Z 01008KT 10SM FEW140 FEW200 26/07 A2980 RMK AO2 SLP092
                 T02560067 10289 20256 53015 =
2018-06-19 18:54 METAR KBOS 192254Z 33012KT 10SM FEW140 FEW200 27/06 A2979 RMK AO2 SLP087
                 T02670056 =
2018-06-19 17:54 METAR KBOS 192154Z 33012G21KT 10SM FEW060 FEW200 27/08 A2977 RMK AO2 SLP079
                 T02720083 =

Support USWX by starting your Amazon purchase here.